Time;durP1;ratioP1;P1;durP2;ratioP2;P2;SDS_P1;SDS_P2;PMS_P1;PMS_P2;Temp;Humidity;BMP_temperature;BMP_pressure;BME280_temperature;BME280_humidity;BME280_pressure;Samples;Min_cycle;Max_cycle;Signal;HPM_P1;HPM_P2
2021/05/10 00:00:40;;;;;;;1.77;1.10;;;;;;;18.57;nan;95494.53;4954721;28;21100;-72
2021/05/10 00:03:07;;;;;;;1.10;1.00;;;;;;;18.58;nan;95494.34;4953877;28;20755;-72
2021/05/10 00:05:34;;;;;;;5.43;1.33;;;;;;;18.58;nan;95489.06;4943520;28;20516;-72
2021/05/10 00:08:00;;;;;;;2.43;1.33;;;;;;;18.45;nan;95488.81;4954201;28;20922;-72
2021/05/10 00:10:28;;;;;;;2.13;1.27;;;;;;;18.35;nan;95493.44;4943422;28;20462;-72
2021/05/10 00:12:55;;;;;;;7.53;1.40;;;;;;;18.35;nan;95493.44;4947601;28;20774;-77
2021/05/10 00:15:22;;;;;;;2.07;1.30;;;;;;;18.30;nan;95485.25;4953144;28;20855;-72
2021/05/10 00:17:49;;;;;;;2.10;1.10;;;;;;;18.16;nan;95482.41;4940701;28;20810;-72
2021/05/10 00:20:16;;;;;;;4.40;1.33;;;;;;;18.03;nan;95471.56;4954034;28;20493;-71
2021/05/10 00:22:43;;;;;;;2.33;1.30;;;;;;;18.23;nan;95473.69;4931553;28;20438;-72
2021/05/10 00:25:11;;;;;;;5.70;1.30;;;;;;;18.30;nan;95469.44;4940737;28;21010;-75
2021/05/10 00:27:41;;;;;;;1.87;1.00;;;;;;;18.37;nan;95478.25;4948810;28;21148;-73
2021/05/10 00:30:09;;;;;;;4.67;1.30;;;;;;;18.45;nan;95472.16;4947067;28;20828;-73
2021/05/10 00:32:36;;;;;;;2.03;1.67;;;;;;;18.50;nan;95475.91;4949972;28;20508;-73
2021/05/10 00:35:04;;;;;;;8.40;1.40;;;;;;;18.50;nan;95464.56;4947578;28;20501;-72
2021/05/10 00:37:31;;;;;;;2.80;1.37;;;;;;;18.59;nan;95458.28;4946566;28;21121;-72
2021/05/10 00:39:59;;;;;;;1.63;1.30;;;;;;;18.66;nan;95453.97;4945961;28;20478;-72
2021/05/10 00:42:26;;;;;;;2.50;1.20;;;;;;;18.66;nan;95451.31;4941046;28;20444;-72
2021/05/10 00:44:54;;;;;;;1.60;1.10;;;;;;;18.69;nan;95443.88;4944779;28;21016;-72
2021/05/10 00:47:21;;;;;;;4.37;1.77;;;;;;;18.65;nan;95439.13;4949423;28;20468;-73
2021/05/10 00:49:48;;;;;;;2.63;1.10;;;;;;;18.59;nan;95440.66;4956613;28;20513;-71
2021/05/10 00:52:15;;;;;;;2.83;1.20;;;;;;;18.58;nan;95451.38;4945207;28;20521;-71
2021/05/10 00:54:42;;;;;;;1.67;0.90;;;;;;;18.53;nan;95446.59;4945373;28;20466;-72
2021/05/10 00:57:09;;;;;;;4.23;2.03;;;;;;;18.59;nan;95445.09;4956429;28;20851;-72
2021/05/10 00:59:37;;;;;;;3.00;1.53;;;;;;;18.67;nan;95456.44;4952840;28;20473;-71
2021/05/10 01:02:05;;;;;;;4.03;1.33;;;;;;;18.67;nan;95447.69;4949638;28;20427;-73
2021/05/10 01:04:32;;;;;;;2.47;1.10;;;;;;;18.67;nan;95445.06;4943861;28;20469;-71
2021/05/10 01:06:59;;;;;;;2.03;1.37;;;;;;;18.72;nan;95446.16;4953463;28;20514;-72
2021/05/10 01:09:27;;;;;;;4.10;1.40;;;;;;;18.66;nan;95446.84;4949903;28;20466;-72
2021/05/10 01:11:54;;;;;;;3.00;1.37;;;;;;;18.65;nan;95437.31;4949463;28;20929;-71
2021/05/10 01:14:21;;;;;;;3.57;1.47;;;;;;;18.60;nan;95431.75;4946323;28;20473;-71
2021/05/10 01:16:47;;;;;;;3.63;1.50;;;;;;;18.55;nan;95431.44;4956145;28;20439;-74
2021/05/10 01:19:18;;;;;;;4.60;1.40;;;;;;;18.55;nan;95426.16;4949754;28;20471;-71
2021/05/10 01:21:48;;;;;;;2.90;1.07;;;;;;;18.50;nan;95423.22;4942553;28;20909;-72
2021/05/10 01:24:16;;;;;;;2.90;1.00;;;;;;;18.63;nan;95420.84;4945182;28;20571;-71
2021/05/10 01:26:44;;;;;;;2.07;1.13;;;;;;;18.71;nan;95420.00;4952338;28;20446;-71
2021/05/10 01:29:11;;;;;;;4.30;1.60;;;;;;;18.67;nan;95424.78;4950197;28;20470;-73
2021/05/10 01:31:38;;;;;;;4.60;1.00;;;;;;;18.64;nan;95425.13;4958153;28;20774;-71
2021/05/10 01:34:06;;;;;;;4.60;1.20;;;;;;;18.55;nan;95434.06;4956521;28;21036;-72
2021/05/10 01:36:33;;;;;;;1.83;1.10;;;;;;;18.58;nan;95433.72;4953258;28;20509;-72
2021/05/10 01:38:59;;;;;;;3.43;1.20;;;;;;;18.53;nan;95422.88;4948380;28;20532;-71
2021/05/10 01:41:27;;;;;;;2.00;1.03;;;;;;;18.58;nan;95425.81;4914304;28;20471;-71
2021/05/10 01:43:54;;;;;;;3.77;1.60;;;;;;;18.62;nan;95418.38;4954416;28;21052;-72
2021/05/10 01:46:21;;;;;;;2.23;1.23;;;;;;;18.58;nan;95419.72;4946050;28;20552;-71
2021/05/10 01:48:48;;;;;;;3.97;1.37;;;;;;;18.52;nan;95405.44;4944240;28;20462;-70
2021/05/10 01:51:15;;;;;;;2.30;1.30;;;;;;;18.45;nan;95409.75;4953612;28;20442;-71
2021/05/10 01:53:45;;;;;;;2.57;1.40;;;;;;;18.42;nan;95399.53;4951350;28;20836;-71
2021/05/10 01:56:12;;;;;;;3.83;1.57;;;;;;;18.50;nan;95399.50;4943611;28;20517;-71
2021/05/10 01:58:42;;;;;;;2.60;1.07;;;;;;;18.55;nan;95399.81;4950830;28;20545;-71
2021/05/10 02:01:09;;;;;;;1.50;1.00;;;;;;;18.50;nan;95394.22;4951688;28;21011;-71
2021/05/10 02:03:36;;;;;;;2.23;1.30;;;;;;;18.56;nan;95401.44;4924000;28;20922;-71
2021/05/10 02:06:03;;;;;;;1.80;1.20;;;;;;;18.55;nan;95402.44;4947192;28;20482;-71
2021/05/10 02:08:30;;;;;;;2.03;1.50;;;;;;;18.58;nan;95399.44;4952859;28;20497;-72
2021/05/10 02:10:57;;;;;;;2.57;1.47;;;;;;;18.46;nan;95377.13;4954742;28;20961;-72
2021/05/10 02:13:25;;;;;;;5.40;1.40;;;;;;;18.43;nan;95388.00;4954964;28;20743;-71
2021/05/10 02:16:02;;;;;;;3.20;1.30;;;;;;;18.33;nan;95379.47;4946284;28;20891;-71
2021/05/10 02:18:31;;;;;;;1.80;1.23;;;;;;;18.30;nan;95393.00;4952160;28;20902;-72
2021/05/10 02:20:58;;;;;;;3.93;1.47;;;;;;;18.24;nan;95396.28;4957489;28;20454;-74
2021/05/10 02:23:27;;;;;;;2.07;1.20;;;;;;;18.21;nan;95396.63;4954000;28;20998;-70
2021/05/10 02:25:56;;;;;;;4.27;1.43;;;;;;;18.25;nan;95411.09;4943885;28;20446;-71
2021/05/10 02:28:24;;;;;;;3.30;1.40;;;;;;;18.31;nan;95399.91;4959937;28;20821;-71
2021/05/10 02:30:54;;;;;;;4.43;1.53;;;;;;;18.37;nan;95401.03;4947462;28;20450;-71
2021/05/10 02:33:23;;;;;;;3.13;1.00;;;;;;;18.46;nan;95400.84;4950495;28;20838;-70
2021/05/10 02:35:51;;;;;;;2.70;1.13;;;;;;;18.47;nan;95402.47;4943244;28;20470;-71
2021/05/10 02:38:20;;;;;;;1.30;0.90;;;;;;;18.41;nan;95397.06;4943356;28;20932;-70
2021/05/10 02:40:48;;;;;;;1.87;1.30;;;;;;;18.31;nan;95402.56;4940209;28;21071;-70
2021/05/10 02:43:15;;;;;;;1.87;1.17;;;;;;;18.33;nan;95399.72;4944982;28;20833;-69
2021/05/10 02:45:42;;;;;;;3.27;1.57;;;;;;;18.27;nan;95395.94;4943628;28;20485;-70
2021/05/10 02:48:11;;;;;;;4.13;1.60;;;;;;;18.27;nan;95395.13;4942192;28;20986;-71
2021/05/10 02:50:39;;;;;;;4.40;1.17;;;;;;;18.26;nan;95378.50;4952513;28;20913;-70
2021/05/10 02:53:06;;;;;;;1.53;1.10;;;;;;;18.27;nan;95390.66;4948489;28;20539;-70
2021/05/10 02:55:33;;;;;;;3.93;1.20;;;;;;;18.21;nan;95391.34;4944595;28;20481;-71
2021/05/10 02:58:00;;;;;;;2.60;1.10;;;;;;;18.25;nan;95389.19;4945972;28;20861;-71
2021/05/10 03:00:28;;;;;;;1.80;1.00;;;;;;;18.26;nan;95394.31;4948490;28;20810;-70
2021/05/10 03:02:56;;;;;;;2.63;1.10;;;;;;;18.17;nan;95378.69;4942229;28;20857;-70
2021/05/10 03:05:26;;;;;;;6.63;1.47;;;;;;;18.23;nan;95389.38;4943911;28;20790;-69
2021/05/10 03:07:54;;;;;;;2.77;1.20;;;;;;;18.29;nan;95378.13;4929236;28;20995;-70
2021/05/10 03:10:22;;;;;;;4.50;1.40;;;;;;;18.24;nan;95369.13;4946683;28;20868;-70
2021/05/10 03:12:51;;;;;;;2.70;1.03;;;;;;;18.34;nan;95394.28;4947005;28;20498;-70
2021/05/10 03:15:28;;;;;;;2.50;1.00;;;;;;;18.25;nan;95403.19;4945859;28;20969;-70
2021/05/10 03:17:55;;;;;;;11.13;1.40;;;;;;;18.21;nan;95404.53;4945460;28;20446;-71
2021/05/10 03:20:23;;;;;;;4.20;1.37;;;;;;;18.22;nan;95393.00;4940275;28;20994;-71
2021/05/10 03:22:53;;;;;;;2.80;1.40;;;;;;;18.15;nan;95407.81;4943875;28;20497;-71
2021/05/10 03:25:20;;;;;;;10.90;1.60;;;;;;;18.09;nan;95413.81;4947101;28;20833;-75
2021/05/10 03:27:47;;;;;;;4.77;1.20;;;;;;;18.03;nan;95430.28;4948079;28;20964;-72
2021/05/10 03:30:16;;;;;;;1.30;1.00;;;;;;;18.08;nan;95442.94;4941782;28;20522;-72
2021/05/10 03:32:45;;;;;;;9.00;1.20;;;;;;;18.10;nan;95470.75;4943534;28;21154;-72
2021/05/10 03:35:13;;;;;;;1.87;1.10;;;;;;;18.13;nan;95470.41;4941590;28;20967;-73
2021/05/10 03:37:41;;;;;;;2.80;0.90;;;;;;;18.02;nan;95480.47;4942615;28;20447;-72
2021/05/10 03:40:11;;;;;;;5.57;1.30;;;;;;;18.01;nan;95474.41;4940948;28;20865;-73
2021/05/10 03:42:38;;;;;;;7.90;1.43;;;;;;;17.95;nan;95466.31;4954930;28;20908;-72
2021/05/10 03:45:07;;;;;;;2.13;1.10;;;;;;;17.87;nan;95456.66;4949003;28;20493;-71
2021/05/10 03:47:40;;;;;;;4.20;1.77;;;;;;;17.80;nan;95449.56;4944427;28;21004;-72
2021/05/10 03:50:11;;;;;;;2.87;1.40;;;;;;;17.82;nan;95469.47;4957431;28;21051;-72
2021/05/10 03:52:38;;;;;;;4.83;1.60;;;;;;;17.82;nan;95471.28;4950800;28;20844;-72
2021/05/10 03:55:07;;;;;;;2.53;1.30;;;;;;;17.83;nan;95463.22;4948074;28;21088;-72
2021/05/10 03:57:35;;;;;;;3.80;1.30;;;;;;;17.80;nan;95460.09;4948741;28;20848;-71
2021/05/10 04:00:03;;;;;;;2.17;1.30;;;;;;;17.80;nan;95460.94;4927763;28;20478;-72
2021/05/10 04:02:31;;;;;;;1.53;1.00;;;;;;;17.91;nan;95479.00;4949979;28;20905;-71
2021/05/10 04:05:07;;;;;;;3.63;1.20;;;;;;;17.96;nan;95487.22;4946050;28;20473;-71
2021/05/10 04:07:41;;;;;;;2.63;1.10;;;;;;;17.92;nan;95475.38;4945951;28;20523;-73
2021/05/10 04:15:39;;;;;;;5.87;1.37;;;;;;;17.91;nan;95510.59;4953972;28;20951;-70
2021/05/10 04:18:06;;;;;;;8.30;1.13;;;;;;;18.00;nan;95519.31;4947735;28;20492;-71
2021/05/10 04:20:33;;;;;;;2.70;1.00;;;;;;;18.12;nan;95524.09;4944449;28;20559;-70
2021/05/10 04:23:00;;;;;;;1.93;1.07;;;;;;;18.15;nan;95497.38;4944530;28;20894;-71
2021/05/10 04:25:27;;;;;;;1.67;1.10;;;;;;;18.02;nan;95497.09;4946284;28;20980;-72
2021/05/10 04:27:55;;;;;;;2.67;1.30;;;;;;;17.91;nan;95484.28;4944184;28;20446;-75
2021/05/10 04:30:23;;;;;;;2.83;1.50;;;;;;;17.87;nan;95487.41;4939173;28;20497;-72
2021/05/10 04:32:50;;;;;;;8.00;1.30;;;;;;;17.81;nan;95482.78;4950348;28;20976;-71
2021/05/10 04:35:18;;;;;;;3.53;1.13;;;;;;;17.95;nan;95490.03;4949794;28;20533;-72
2021/05/10 04:37:45;;;;;;;4.40;1.40;;;;;;;17.97;nan;95475.72;4944569;28;20758;-72
2021/05/10 04:40:13;;;;;;;5.30;1.40;;;;;;;17.98;nan;95482.63;4944026;28;21006;-71
2021/05/10 04:42:40;;;;;;;3.27;1.60;;;;;;;18.00;nan;95483.25;4943525;28;20976;-72
2021/05/10 04:45:09;;;;;;;3.60;1.20;;;;;;;18.10;nan;95488.34;4945906;28;20862;-72
2021/05/10 04:47:36;;;;;;;9.80;1.53;;;;;;;18.18;nan;95486.53;4943223;28;20985;-71
2021/05/10 04:50:05;;;;;;;3.73;1.33;;;;;;;18.29;nan;95483.53;4946513;28;21120;-71
2021/05/10 04:52:32;;;;;;;5.70;1.63;;;;;;;18.47;nan;95491.25;4943200;28;20765;-71
2021/05/10 04:54:59;;;;;;;8.30;1.20;;;;;;;18.64;nan;95498.13;4944266;28;20474;-71
2021/05/10 04:57:26;;;;;;;3.47;1.60;;;;;;;18.78;nan;95487.69;4944369;28;20439;-71
2021/05/10 04:59:53;;;;;;;1.40;0.90;;;;;;;18.84;nan;95496.72;4943399;28;20536;-72
2021/05/10 05:02:21;;;;;;;1.50;1.10;;;;;;;18.87;nan;95491.91;4950138;28;21011;-71
2021/05/10 05:04:48;;;;;;;3.30;1.40;;;;;;;18.87;nan;95489.28;4947274;28;20545;-71
2021/05/10 05:07:15;;;;;;;2.97;1.27;;;;;;;18.87;nan;95496.38;4929872;28;20511;-71
2021/05/10 05:09:42;;;;;;;5.13;1.70;;;;;;;18.77;nan;95496.59;4948143;28;20981;-72
2021/05/10 05:12:09;;;;;;;2.47;1.30;;;;;;;18.81;nan;95483.88;4954661;28;20546;-72
2021/05/10 05:14:36;;;;;;;4.10;1.33;;;;;;;18.89;nan;95489.94;4949945;28;20532;-72
2021/05/10 05:17:03;;;;;;;8.60;1.57;;;;;;;18.86;nan;95498.19;4936594;28;20469;-70
2021/05/10 05:19:31;;;;;;;13.60;1.60;;;;;;;18.84;nan;95488.78;4953953;28;20473;-72
2021/05/10 05:21:58;;;;;;;4.70;1.23;;;;;;;18.92;nan;95505.41;4958531;28;20461;-71
2021/05/10 05:24:25;;;;;;;3.27;1.40;;;;;;;18.99;nan;95511.66;4950025;28;20857;-72
2021/05/10 05:26:52;;;;;;;5.10;1.07;;;;;;;18.88;nan;95503.28;4952741;28;20438;-72
2021/05/10 05:29:22;;;;;;;1.90;1.07;;;;;;;18.91;nan;95516.97;4947567;28;20845;-72
2021/05/10 05:31:49;;;;;;;1.77;1.10;;;;;;;18.96;nan;95514.66;4957217;28;21357;-72
2021/05/10 05:34:16;;;;;;;3.93;1.30;;;;;;;18.90;nan;95519.75;4947390;28;20819;-71
2021/05/10 05:36:44;;;;;;;3.40;0.97;;;;;;;18.87;nan;95526.19;4949343;28;20442;-71
2021/05/10 05:39:12;;;;;;;4.30;1.57;;;;;;;18.78;nan;95544.88;4933397;28;20457;-72
2021/05/10 05:41:40;;;;;;;1.90;1.00;;;;;;;18.74;nan;95547.03;4958060;28;21070;-73
2021/05/10 05:44:08;;;;;;;7.30;1.57;;;;;;;18.85;nan;95546.66;4953343;28;20470;-70
2021/05/10 05:46:39;;;;;;;3.43;1.30;;;;;;;18.89;nan;95553.25;4952715;28;21209;-72
2021/05/10 05:49:07;;;;;;;5.13;1.67;;;;;;;18.89;nan;95565.59;4947831;28;20488;-71
2021/05/10 05:51:34;;;;;;;3.50;1.30;;;;;;;18.79;nan;95571.06;4948383;28;20496;-72
2021/05/10 05:54:02;;;;;;;3.50;1.60;;;;;;;18.71;nan;95599.28;4944790;28;20481;-74
2021/05/10 05:56:32;;;;;;;5.97;2.00;;;;;;;18.65;nan;95636.88;4949229;28;20968;-72
2021/05/10 05:58:59;;;;;;;3.03;1.33;;;;;;;18.33;nan;95640.34;4944018;28;20842;-73
2021/05/10 06:01:26;;;;;;;2.87;1.33;;;;;;;18.33;nan;95642.16;4953373;28;20947;-72
2021/05/10 06:03:53;;;;;;;6.77;1.57;;;;;;;18.42;nan;95623.53;4949818;28;20801;-71
2021/05/10 06:06:20;;;;;;;3.93;1.63;;;;;;;18.40;nan;95632.59;4953144;28;20577;-71
2021/05/10 06:08:47;;;;;;;4.67;1.53;;;;;;;18.32;nan;95635.25;4950697;28;20596;-71
2021/05/10 06:11:15;;;;;;;3.13;1.20;;;;;;;18.41;nan;95637.72;4941375;28;20769;-72
2021/05/10 06:13:42;;;;;;;6.20;1.20;;;;;;;18.68;nan;95647.91;4947619;28;20848;-71
2021/05/10 06:16:10;;;;;;;5.03;1.60;;;;;;;18.95;nan;95636.16;4948984;28;20431;-71
2021/05/10 06:18:37;;;;;;;4.53;1.70;;;;;;;19.08;nan;95628.53;4943349;28;20827;-71
2021/05/10 06:21:06;;;;;;;3.03;1.50;;;;;;;19.31;nan;95627.63;4951141;28;20853;-71
2021/05/10 06:23:33;;;;;;;2.00;1.50;;;;;;;19.44;nan;95622.63;4947944;28;20462;-71
2021/05/10 06:26:01;;;;;;;4.70;1.10;;;;;;;19.63;nan;95609.00;4953927;28;20746;-71
2021/05/10 06:28:29;;;;;;;4.30;1.37;;;;;;;19.83;nan;95604.88;4946161;28;20430;-71
2021/05/10 06:30:55;;;;;;;6.43;1.47;;;;;;;20.01;nan;95600.16;4946643;28;20561;-72
2021/05/10 06:33:23;;;;;;;1.73;1.40;;;;;;;20.19;nan;95608.59;4953652;28;20441;-71
2021/05/10 06:35:50;;;;;;;6.20;1.33;;;;;;;19.98;nan;95619.00;4942122;28;20805;-69
2021/05/10 06:38:17;;;;;;;2.00;1.50;;;;;;;20.17;nan;95607.16;4946648;28;20430;-72
2021/05/10 06:40:44;;;;;;;5.07;1.30;;;;;;;20.27;nan;95619.13;4942127;28;21146;-71
2021/05/10 06:43:11;;;;;;;2.90;1.60;;;;;;;20.40;nan;95605.31;4950154;28;20911;-70
2021/05/10 06:45:39;;;;;;;9.53;1.50;;;;;;;20.44;nan;95619.81;4946366;28;20464;-71
2021/05/10 06:48:06;;;;;;;3.07;1.50;;;;;;;20.64;nan;95620.94;4951606;28;20841;-71
2021/05/10 06:50:33;;;;;;;4.00;1.57;;;;;;;20.72;nan;95623.50;4955065;28;20816;-70
2021/05/10 06:53:00;;;;;;;5.70;1.67;;;;;;;20.79;nan;95619.97;4947044;28;20862;-72
2021/05/10 06:55:27;;;;;;;3.00;1.60;;;;;;;21.02;nan;95615.47;4946828;28;21009;-70
2021/05/10 06:57:54;;;;;;;4.70;1.70;;;;;;;20.94;nan;95622.66;4946486;28;20557;-69
2021/05/10 07:00:29;;;;;;;4.53;1.40;;;;;;;20.67;nan;95645.22;4948482;28;20509;-71
2021/05/10 07:02:57;;;;;;;4.23;2.37;;;;;;;20.65;nan;95654.34;4943393;28;20960;-70
2021/05/10 07:05:24;;;;;;;11.53;2.77;;;;;;;20.62;nan;95654.69;4947118;28;20911;-70
2021/05/10 07:07:51;;;;;;;4.30;1.30;;;;;;;20.49;nan;95671.16;4948963;28;20878;-71
2021/05/10 07:10:18;;;;;;;17.20;2.87;;;;;;;20.72;nan;95692.28;4950660;28;20497;-71
2021/05/10 07:12:45;;;;;;;5.10;1.63;;;;;;;20.57;nan;95705.50;4950693;28;20513;-69
2021/05/10 07:15:15;;;;;;;10.70;1.30;;;;;;;20.72;nan;95701.06;4941223;28;21008;-72
2021/05/10 07:17:42;;;;;;;13.50;2.20;;;;;;;20.94;nan;95710.81;4944058;28;20442;-70
2021/05/10 07:20:11;;;;;;;9.47;1.53;;;;;;;21.07;nan;95713.66;4941042;28;20480;-71
2021/05/10 07:22:42;;;;;;;4.77;1.80;;;;;;;21.02;nan;95717.84;4942742;28;20441;-70
2021/05/10 07:25:10;;;;;;;5.43;1.47;;;;;;;20.98;nan;95698.06;4942638;28;20962;-71
2021/05/10 07:27:37;;;;;;;3.90;1.80;;;;;;;20.95;nan;95699.22;4943367;28;20764;-70
2021/05/10 07:30:08;;;;;;;4.60;1.90;;;;;;;21.26;nan;95701.72;4945375;28;21269;-72
2021/05/10 07:32:35;;;;;;;2.37;1.43;;;;;;;21.39;nan;95697.44;4941265;28;20994;-70
2021/05/10 07:35:03;;;;;;;4.80;1.60;;;;;;;21.46;nan;95708.94;4947753;28;20466;-70
2021/05/10 07:37:31;;;;;;;4.80;1.60;;;;;;;21.53;nan;95720.47;4945797;28;20449;-69
2021/05/10 07:39:58;;;;;;;7.37;1.83;;;;;;;21.52;nan;95713.53;4942963;28;20551;-70
2021/05/10 07:42:24;;;;;;;7.60;1.77;;;;;;;21.49;nan;95705.94;4949350;28;20466;-69
2021/05/10 07:44:52;;;;;;;12.43;1.70;;;;;;;21.56;nan;95714.78;4941628;28;20492;-70
2021/05/10 07:47:19;;;;;;;3.20;1.70;;;;;;;21.58;nan;95712.75;4942603;28;21011;-70
2021/05/10 07:49:53;;;;;;;2.70;1.53;;;;;;;21.81;58.51;95718.00;5046751;27;21498;-34
2021/05/10 07:52:20;;;;;;;6.43;1.80;;;;;;;21.64;57.57;95690.84;5017912;28;20865;-41
2021/05/10 07:54:47;;;;;;;2.87;1.20;;;;;;;21.59;58.10;95693.25;5018296;28;20985;-34
2021/05/10 07:57:13;;;;;;;3.53;1.30;;;;;;;21.43;58.18;95705.84;5025996;28;20469;-43
2021/05/10 07:59:40;;;;;;;3.83;1.20;;;;;;;21.47;58.15;95700.00;5029547;28;20461;-41
2021/05/10 08:02:08;;;;;;;4.80;1.33;;;;;;;21.72;58.25;95695.28;5022486;28;20803;-34
2021/05/10 08:04:35;;;;;;;5.07;1.40;;;;;;;22.16;57.50;95702.09;5021875;28;20984;-41
2021/05/10 08:07:03;;;;;;;3.23;1.30;;;;;;;22.49;56.16;95708.63;5026923;28;20788;-41
2021/05/10 08:09:30;;;;;;;5.50;1.27;;;;;;;22.92;55.76;95710.25;5026052;28;21050;-34
2021/05/10 08:11:57;;;;;;;4.80;1.67;;;;;;;22.82;55.01;95702.59;5019833;28;20453;-41
2021/05/10 08:14:24;;;;;;;3.50;1.30;;;;;;;22.77;55.20;95697.03;5026010;28;20816;-34
2021/05/10 08:16:52;;;;;;;6.70;1.40;;;;;;;22.49;55.33;95700.66;5024998;28;20912;-34
2021/05/10 08:19:19;;;;;;;1.77;1.20;;;;;;;22.62;55.19;95714.06;5016460;28;20485;-41
2021/05/10 08:21:46;;;;;;;5.23;1.93;;;;;;;22.76;55.07;95710.50;5023798;28;20569;-41
2021/05/10 08:24:14;;;;;;;2.47;1.30;;;;;;;22.81;55.39;95721.34;5026864;28;21050;-43
2021/05/10 08:26:41;;;;;;;3.10;1.47;;;;;;;22.74;56.30;95718.66;5024051;28;20909;-34
2021/05/10 08:29:08;;;;;;;5.30;1.70;;;;;;;22.57;56.73;95719.09;5020776;28;20775;-34
2021/05/10 08:31:35;;;;;;;4.50;1.57;;;;;;;22.52;55.51;95713.53;5022391;28;20434;-41
2021/05/10 08:34:02;;;;;;;4.83;1.27;;;;;;;22.18;56.00;95725.78;5026881;28;20541;-38
2021/05/10 08:36:29;;;;;;;3.03;1.43;;;;;;;22.02;56.88;95737.41;5024082;28;20430;-35
2021/05/10 08:38:56;;;;;;;6.60;1.53;;;;;;;21.95;57.41;95738.38;5022514;28;20572;-43
2021/05/10 08:41:24;;;;;;;7.87;1.70;;;;;;;21.92;58.45;95741.38;5024060;28;20434;-36
2021/05/10 08:43:51;;;;;;;7.40;1.37;;;;;;;21.90;58.69;95748.69;5023336;28;20481;-35
2021/05/10 08:46:22;;;;;;;3.67;1.37;;;;;;;21.89;58.97;95747.88;5021502;28;20447;-42
2021/05/10 08:48:49;;;;;;;5.27;1.70;;;;;;;22.06;59.46;95741.34;5021934;28;20844;-35
2021/05/10 08:51:19;;;;;;;6.60;1.70;;;;;;;22.35;58.49;95728.84;5024696;28;20731;-35
2021/05/10 08:53:46;;;;;;;2.87;1.23;;;;;;;22.88;57.73;95730.19;5022188;28;20450;-35
2021/05/10 08:56:13;;;;;;;6.93;1.90;;;;;;;23.17;57.86;95730.06;5023129;28;20773;-42
2021/05/10 08:58:43;;;;;;;3.97;1.63;;;;;;;23.30;57.31;95730.16;5024216;28;20442;-43
2021/05/10 09:01:11;;;;;;;8.10;1.93;;;;;;;23.34;57.13;95728.75;5013709;28;20881;-35
2021/05/10 09:03:41;;;;;;;6.00;1.57;;;;;;;23.44;55.61;95738.03;5003175;28;20505;-42
2021/05/10 09:06:12;;;;;;;7.23;1.40;;;;;;;23.48;55.36;95738.44;5009022;28;20979;-42
2021/05/10 09:08:41;;;;;;;2.70;1.23;;;;;;;23.52;55.74;95751.16;5010413;28;20763;-35
2021/05/10 09:11:09;;;;;;;17.23;1.80;;;;;;;23.66;55.23;95744.91;5010740;28;20746;-42
2021/05/10 09:13:43;;;;;;;4.83;1.30;;;;;;;23.74;54.12;95733.31;5007909;28;21098;-35
2021/05/10 09:16:12;;;;;;;4.67;1.53;;;;;;;24.00;53.66;95746.75;5007689;28;20788;-42
2021/05/10 09:18:40;;;;;;;3.43;1.60;;;;;;;23.79;53.33;95760.13;5009638;28;20443;-43
2021/05/10 09:21:12;;;;;;;5.57;1.10;;;;;;;23.42;54.53;95776.44;5008791;28;20985;-42
2021/05/10 09:24:00;;;;;;;3.37;0.80;;;;;;;23.18;55.51;95777.69;5011584;28;20514;-42
2021/05/10 09:26:28;;;;;;;1.77;1.00;;;;;;;23.24;53.16;95776.94;5008866;28;20501;-42
2021/05/10 09:28:57;;;;;;;3.37;0.80;;;;;;;23.54;53.30;95780.19;5039055;28;20493;-35
2021/05/10 09:31:24;;;;;;;5.67;0.80;;;;;;;23.60;53.41;95790.91;4999669;28;20793;-42
2021/05/10 09:33:53;;;;;;;1.60;1.03;;;;;;;23.47;52.24;95768.69;5008416;28;20882;-41
2021/05/10 09:36:33;;;;;;;3.93;1.00;;;;;;;23.43;51.58;95784.22;5004504;28;20968;-44
2021/05/10 09:39:02;;;;;;;2.20;1.20;;;;;;;23.72;51.99;95789.31;5009934;28;20493;-35
2021/05/10 09:41:29;;;;;;;1.40;0.80;;;;;;;23.85;50.84;95791.22;5012024;28;20796;-42
2021/05/10 09:44:05;;;;;;;2.10;0.70;;;;;;;23.66;51.63;95778.66;5011032;28;20553;-35
2021/05/10 09:46:39;;;;;;;15.80;1.50;;;;;;;23.76;51.42;95774.63;5003627;28;20869;-41
2021/05/10 09:49:06;;;;;;;5.03;1.00;;;;;;;23.93;51.21;95770.66;5007203;28;20502;-42
2021/05/10 09:51:33;;;;;;;4.80;0.87;;;;;;;24.10;51.43;95781.81;5010442;28;20796;-42
2021/05/10 09:54:09;;;;;;;2.83;0.70;;;;;;;24.30;50.87;95780.06;5009707;28;20962;-35
2021/05/10 09:56:37;;;;;;;2.07;0.90;;;;;;;24.26;51.70;95776.13;5007698;28;20542;-44
2021/05/10 09:59:07;;;;;;;1.90;0.77;;;;;;;24.24;50.70;95778.19;5011975;28;21082;-37
2021/05/10 10:01:43;;;;;;;4.60;0.80;;;;;;;24.18;50.63;95786.94;5009884;28;20825;-37
2021/05/10 10:04:13;;;;;;;2.90;0.80;;;;;;;23.93;51.35;95743.28;5003448;28;20745;-37
2021/05/10 10:06:44;;;;;;;1.40;1.07;;;;;;;23.96;51.64;95774.78;4999170;28;20439;-37
2021/05/10 10:09:12;;;;;;;2.53;0.73;;;;;;;23.72;51.58;95778.69;5010063;28;20491;-37
2021/05/10 10:11:40;;;;;;;2.70;1.00;;;;;;;23.29;52.06;95766.53;5005127;28;20514;-37
2021/05/10 10:14:09;;;;;;;1.63;0.90;;;;;;;23.22;53.49;95786.09;5009135;28;20774;-44
2021/05/10 10:16:37;;;;;;;4.50;0.80;;;;;;;22.98;53.65;95805.06;5010788;28;20434;-37
2021/05/10 10:19:06;;;;;;;2.47;1.00;;;;;;;22.81;54.03;95814.25;5004833;28;20756;-44
2021/05/10 10:21:40;;;;;;;1.00;0.70;;;;;;;22.63;54.69;95821.84;5005575;28;20439;-44
2021/05/10 10:24:09;;;;;;;8.30;1.33;;;;;;;22.48;54.93;95818.41;5005284;28;20467;-37
2021/05/10 10:26:57;;;;;;;1.97;0.83;;;;;;;22.18;56.56;95823.91;5008998;28;20552;-37
2021/05/10 10:29:26;;;;;;;2.40;1.23;;;;;;;22.36;55.79;95838.41;5009268;28;20471;-44
2021/05/10 10:31:54;;;;;;;1.80;1.00;;;;;;;22.42;55.94;95846.47;5009895;28;21194;-37
2021/05/10 10:34:26;;;;;;;1.20;0.80;;;;;;;22.41;56.27;95857.25;5011101;28;20470;-44
2021/05/10 10:36:57;;;;;;;4.40;0.80;;;;;;;22.35;55.66;95860.66;5005985;28;20808;-37
2021/05/10 10:39:27;;;;;;;3.27;0.90;;;;;;;22.55;54.85;95851.94;5007447;28;20462;-37
2021/05/10 10:41:56;;;;;;;5.70;0.90;;;;;;;22.91;55.34;95857.28;5010495;28;20898;-44
2021/05/10 10:44:30;;;;;;;5.10;1.10;;;;;;;23.27;54.21;95842.09;5002923;28;20864;-37
2021/05/10 10:46:57;;;;;;;3.00;1.00;;;;;;;23.22;53.29;95839.22;5007607;28;20838;-37
2021/05/10 10:49:38;;;;;;;0.90;0.70;;;;;;;23.42;52.17;95845.53;5008449;28;20871;-37
2021/05/10 10:52:17;;;;;;;1.90;0.70;;;;;;;23.63;52.07;95821.56;5004346;28;20465;-37
2021/05/10 10:54:44;;;;;;;3.33;0.80;;;;;;;23.59;51.55;95825.63;5006906;28;20471;-44
2021/05/10 10:57:30;;;;;;;3.83;0.70;;;;;;;23.68;51.81;95840.41;5003105;28;20411;-44
2021/05/10 10:59:58;;;;;;;3.80;0.83;;;;;;;23.29;51.85;95835.59;5011957;28;20842;-44
2021/05/10 11:02:27;;;;;;;16.10;1.30;;;;;;;23.03;52.37;95834.50;5009718;28;20450;-44
2021/05/10 11:05:09;;;;;;;1.27;0.80;;;;;;;22.72;53.48;95847.25;5005179;28;20479;-44
2021/05/10 11:08:04;;;;;;;34.57;19.83;;;;;;;22.42;53.08;95857.09;5003910;28;20442;-37
2021/05/10 11:10:42;;;;;;;13.13;5.40;;;;;;;21.89;53.92;95843.31;4989898;28;20466;-44
2021/05/10 11:13:09;;;;;;;1.03;0.63;;;;;;;21.44;54.90;95869.84;5007815;28;20466;-37
2021/05/10 11:15:47;;;;;;;4.00;0.80;;;;;;;21.22;56.42;95881.28;5008977;28;20470;-36
2021/05/10 11:18:35;;;;;;;1.83;0.90;;;;;;;21.00;56.70;95878.66;5004143;28;20447;-37
2021/05/10 11:21:04;;;;;;;1.67;0.93;;;;;;;20.69;57.36;95854.84;5008998;28;20878;-37
2021/05/10 11:23:33;;;;;;;1.77;0.80;;;;;;;20.62;57.07;95896.22;5007963;28;20514;-43
2021/05/10 11:26:01;;;;;;;5.13;1.27;;;;;;;20.43;58.46;95909.88;5012414;28;20454;-44
2021/05/10 11:28:47;;;;;;;2.10;0.90;;;;;;;20.51;58.00;95888.66;5007365;28;20793;-36
2021/05/10 11:31:32;;;;;;;4.20;0.90;;;;;;;20.38;58.29;95904.25;5002083;28;21039;-43
2021/05/10 11:34:11;;;;;;;1.30;0.70;;;;;;;20.11;59.23;95904.69;5010489;28;20540;-43
2021/05/10 11:37:00;;;;;;;1.30;0.70;;;;;;;20.00;59.49;95893.63;5004417;28;20758;-43
2021/05/10 11:39:30;;;;;;;4.10;0.80;;;;;;;19.89;60.42;95900.06;5003421;28;20878;-44
2021/05/10 11:42:00;;;;;;;3.63;1.07;;;;;;;20.04;60.26;95892.28;5009877;28;20833;-36
2021/05/10 11:44:29;;;;;;;21.90;11.67;;;;;;;20.22;60.13;95883.19;5001216;28;20532;-44
2021/05/10 11:46:59;;;;;;;7.37;0.83;;;;;;;20.09;60.31;95864.38;5007020;28;20447;-44
2021/05/10 11:49:28;;;;;;;8.53;0.80;;;;;;;20.26;59.97;95887.13;5009356;28;20506;-44
2021/05/10 11:52:00;;;;;;;1.00;0.60;;;;;;;20.32;60.23;95898.84;5002025;28;20887;-44
2021/05/10 11:54:30;;;;;;;2.70;0.70;;;;;;;20.36;60.21;95903.63;5006609;28;20474;-46
2021/05/10 11:57:03;;;;;;;3.53;0.77;;;;;;;20.50;59.89;95902.91;5006368;28;20455;-38